全部
Enua Airport (Atiu (Enua Manu)) AIU 天气
|
Atiu (Enua Manu) (AIU / NCAT)
晴天
微风 |
|
24 °C |
There is no TAF data available at AIU or any nearby airports.
AIU近期METAR历史数据
| Date | Time (-10) | Flight Rules | Wind Dir. | Speed | Type | Height AGL (ft) | Visibility | Temp (°C) | Temp (°F) | Dew Point (°C) | Dew Point (°F) | Rel. Humid. | Pressure | Density Altitude | Remarks |
|---|---|---|---|---|---|---|---|---|---|---|---|---|---|---|---|
| 05-五月 | 02:00 | n/a | 150° | 4 kt | Missing | 24° | 75° | 23° | 73° | 94% | 1013 mb | 1,137 ft | |||
| 05-五月 | 01:00 | n/a | 140° | 3 kt | Missing | 24° | 75° | 23° | 73° | 94% | 1014 mb | 1,108 ft | |||
| 05-五月 | 00:00 | n/a | 160° | 3 kt | Missing | 23° | 73° | 22° | 71° | 94% | 1014 mb | 988 ft | |||
| 04-五月 | 23:00 | n/a | 140° | 3 kt | Missing | 23° | 73° | 23° | 73° | 100% | 1014 mb | 988 ft | |||
| 04-五月 | 22:00 | n/a | 150° | 3 kt | Missing | 23° | 73° | 22° | 71° | 94% | 1014 mb | 988 ft | |||
| 04-五月 | 21:00 | n/a | 160° | 3 kt | Missing | 25° | 77° | 22° | 71° | 83% | 1013 mb | 1,257 ft | |||
| 04-五月 | 20:00 | n/a | 160° | 3 kt | Missing | 25° | 77° | 22° | 71° | 83% | 1012 mb | 1,287 ft | |||
| 04-五月 | 19:00 | n/a | 150° | 3 kt | Missing | 27° | 80° | 26° | 78° | 94% | 1012 mb | 1,527 ft | |||
| 04-五月 | 18:00 | n/a | 150° | 3 kt | Missing | 25° | 77° | 23° | 73° | 89% | 1011 mb | 1,316 ft | |||
| 04-五月 | 17:00 | n/a | 150° | 2 kt | Missing | 25° | 77° | 23° | 73° | 89% | 1011 mb | 1,316 ft | |||
| 04-五月 | 16:00 | n/a | 150° | 2 kt | Missing | 26° | 78° | 23° | 73° | 84% | 1010 mb | 1,466 ft | |||
| 04-五月 | 15:00 | n/a | 140° | 3 kt | Missing | 27° | 80° | 24° | 75° | 84% | 1010 mb | 1,586 ft | |||
| 04-五月 | 14:00 | n/a | 150° | 4 kt | Missing | 27° | 80° | 24° | 75° | 84% | 1011 mb | 1,556 ft | |||
| 04-五月 | 13:00 | n/a | 160° | 4 kt | Missing | 26° | 78° | 24° | 75° | 89% | 1011 mb | 1,436 ft | |||
| 04-五月 | 12:00 | n/a | 150° | 3 kt | Missing | 27° | 80° | 24° | 75° | 84% | 1012 mb | 1,527 ft | |||
| 04-五月 | 11:00 | n/a | 150° | 2 kt | Missing | 27° | 80° | 24° | 75° | 84% | 1012 mb | 1,527 ft | |||
| 04-五月 | 10:00 | n/a | 140° | 2 kt | Missing | 27° | 80° | 25° | 77° | 89% | 1012 mb | 1,527 ft | |||
| 04-五月 | 09:00 | n/a | 150° | 2 kt | Missing | 25° | 77° | 24° | 75° | 94% | 1012 mb | 1,287 ft | |||
| 04-五月 | 08:00 | n/a | 160° | 2 kt | Missing | 24° | 75° | 24° | 75° | 100% | 1012 mb | 1,167 ft | |||
| 04-五月 | 07:00 | n/a | 160° | 1 kt | Missing | 23° | 73° | 23° | 73° | 100% | 1011 mb | 1,076 ft | |||
| 04-五月 | 06:00 | n/a | 160° | 2 kt | Missing | 24° | 75° | 23° | 73° | 94% | 1010 mb | 1,226 ft | |||
| 04-五月 | 05:00 | n/a | 160° | 1 kt | Missing | 24° | 75° | 24° | 75° | 100% | 1011 mb | 1,196 ft | |||
| 04-五月 | 04:00 | n/a | 170° | 1 kt | Missing | 24° | 75° | 24° | 75° | 100% | 1011 mb | 1,196 ft | |||
| 04-五月 | 03:00 | n/a | 340° | 1 kt | Missing | 24° | 75° | 24° | 75° | 100% | 1011 mb | 1,196 ft |
登录
| 您的浏览器不支持. 升级您的浏览器 |
